createdAt,value
2019-04-20T00:02:04.502Z,9.90
2019-04-20T00:04:33.674Z,9.70
2019-04-20T00:07:00.090Z,9.60
2019-04-20T00:09:33.231Z,9.60
2019-04-20T00:12:08.918Z,9.50
2019-04-20T00:14:34.564Z,9.40
2019-04-20T00:17:03.015Z,9.30
2019-04-20T00:19:40.006Z,9.20
2019-04-20T00:22:08.692Z,9.30
2019-04-20T00:25:00.441Z,9.40
2019-04-20T00:27:44.324Z,9.50
2019-04-20T00:30:22.774Z,9.50
2019-04-20T00:32:41.264Z,9.50
2019-04-20T00:34:58.003Z,9.50
2019-04-20T00:37:27.764Z,9.50
2019-04-20T00:39:57.822Z,9.50
2019-04-20T00:42:34.020Z,9.40
2019-04-20T00:45:06.772Z,9.10
2019-04-20T00:47:37.104Z,8.90
2019-04-20T00:50:19.583Z,8.80
2019-04-20T00:52:51.339Z,8.60
2019-04-20T00:55:04.321Z,8.50
2019-04-20T00:57:41.388Z,8.40
2019-04-20T01:00:26.876Z,8.40
2019-04-20T01:02:50.617Z,8.40
2019-04-20T01:05:23.185Z,8.40
2019-04-20T01:07:56.213Z,8.30
2019-04-20T01:10:23.542Z,8.20
2019-04-20T01:13:02.489Z,8.30
2019-04-20T01:15:36.409Z,8.20
2019-04-20T01:17:55.178Z,8.10
2019-04-20T01:20:26.364Z,8.20
2019-04-20T01:23:01.893Z,8.10
2019-04-20T01:25:32.275Z,8.10
2019-04-20T01:28:12.135Z,8.10
2019-04-20T01:30:36.170Z,8.10
2019-04-20T01:33:12.773Z,8.10
2019-04-20T01:35:50.165Z,8.00
2019-04-20T01:38:20.893Z,7.90
2019-04-20T01:40:33.719Z,8.00
2019-04-20T01:43:03.716Z,7.90
2019-04-20T01:45:37.895Z,7.80
2019-04-20T01:48:06.365Z,7.70
2019-04-20T01:50:38.266Z,7.70
2019-04-20T01:53:19.021Z,7.60
2019-04-20T01:55:50.639Z,7.60
2019-04-20T01:58:36.366Z,7.60
2019-04-20T02:01:09.228Z,7.50
2019-04-20T02:03:38.531Z,7.50
2019-04-20T02:06:16.722Z,7.40
2019-04-20T02:08:44.142Z,7.40
2019-04-20T02:11:21.299Z,7.30
2019-04-20T02:13:52.840Z,7.30
2019-04-20T02:16:24.354Z,7.20
2019-04-20T02:19:05.272Z,7.20
2019-04-20T02:21:33.513Z,7.20
2019-04-20T02:23:54.673Z,7.20
2019-04-20T02:26:20.031Z,7.30
2019-04-20T02:29:33.578Z,7.40
2019-04-20T02:32:05.081Z,7.30
2019-04-20T02:34:33.542Z,7.20
2019-04-20T02:39:46.274Z,7.10
2019-04-20T02:47:21.575Z,6.90
2019-04-20T02:49:51.871Z,6.80
2019-04-20T02:52:25.050Z,6.80
2019-04-20T02:54:48.711Z,6.80
2019-04-20T02:57:22.447Z,6.80
2019-04-20T03:00:01.116Z,6.70
2019-04-20T03:02:06.400Z,6.80
2019-04-20T03:04:34.154Z,6.70
2019-04-20T03:07:07.930Z,6.70
2019-04-20T03:09:46.514Z,6.70
2019-04-20T03:12:18.727Z,6.80
2019-04-20T03:14:39.600Z,6.80
2019-04-20T03:17:21.141Z,6.80
2019-04-20T03:19:41.232Z,6.70
2019-04-20T03:22:27.286Z,6.70
2019-04-20T03:24:54.397Z,6.70
2019-04-20T03:27:19.190Z,6.60
2019-04-20T03:29:56.245Z,6.50
2019-04-20T03:35:14.934Z,6.50
2019-04-20T03:37:36.977Z,6.60
2019-04-20T03:39:57.070Z,6.70
2019-04-20T03:42:14.215Z,6.80
2019-04-20T03:44:54.056Z,7.00
2019-04-20T03:47:29.157Z,7.10
2019-04-20T03:50:07.882Z,7.20
2019-04-20T03:52:36.252Z,7.10
2019-04-20T03:55:16.226Z,7.10
2019-04-20T03:58:04.529Z,7.10
2019-04-20T04:00:51.773Z,7.10
2019-04-20T04:03:36.147Z,6.90
2019-04-20T04:05:56.844Z,6.80
2019-04-20T04:08:24.771Z,6.70
2019-04-20T04:11:02.808Z,6.60
2019-04-20T04:13:18.788Z,6.70
2019-04-20T04:15:55.600Z,6.80
2019-04-20T04:18:27.992Z,6.90
2019-04-20T04:21:01.401Z,6.90
2019-04-20T04:23:40.797Z,7.00
2019-04-20T04:26:08.616Z,7.10
2019-04-20T04:28:41.114Z,7.10
2019-04-20T04:31:20.480Z,7.10
2019-04-20T04:36:15.359Z,7.10
2019-04-20T04:38:53.694Z,7.00
2019-04-20T04:41:22.883Z,7.00
2019-04-20T04:43:49.925Z,7.00
2019-04-20T04:46:04.127Z,7.30
2019-04-20T04:48:37.518Z,7.90
2019-04-20T04:51:14.946Z,8.70
2019-04-20T04:53:47.807Z,9.30
2019-04-20T04:56:14.128Z,10.00
2019-04-20T04:58:42.638Z,10.50
2019-04-20T05:01:18.516Z,11.10
2019-04-20T05:04:09.821Z,11.70
2019-04-20T05:06:31.802Z,12.50
2019-04-20T05:08:51.469Z,13.00
2019-04-20T05:11:17.875Z,13.10
2019-04-20T05:13:54.644Z,13.60
2019-04-20T05:16:38.498Z,14.30
2019-04-20T05:19:13.400Z,14.60
2019-04-20T05:21:57.439Z,14.70
2019-04-20T05:24:26.869Z,15.90
2019-04-20T05:27:06.025Z,16.70
2019-04-20T05:29:18.013Z,16.30
2019-04-20T05:31:49.040Z,16.70
2019-04-20T05:34:38.712Z,16.10
2019-04-20T05:37:17.371Z,17.30
2019-04-20T05:39:38.190Z,17.80
2019-04-20T05:42:12.348Z,17.90
2019-04-20T05:44:44.314Z,18.60
2019-04-20T05:47:11.340Z,18.90
2019-04-20T05:49:39.952Z,19.50
2019-04-20T05:52:24.080Z,18.90
2019-04-20T05:54:45.633Z,18.60
2019-04-20T05:57:21.355Z,18.10
2019-04-20T05:59:53.159Z,17.80
2019-04-20T06:02:15.977Z,19.30
2019-04-20T06:04:59.687Z,19.40
2019-04-20T06:07:24.003Z,20.00
2019-04-20T06:09:54.494Z,20.50
2019-04-20T06:12:22.369Z,20.40
2019-04-20T06:15:06.309Z,20.90
2019-04-20T06:17:50.304Z,20.10
2019-04-20T06:20:24.440Z,20.20
2019-04-20T06:22:58.116Z,20.90
2019-04-20T06:25:39.657Z,21.80
2019-04-20T06:27:57.145Z,22.20
2019-04-20T06:30:23.901Z,22.30
2019-04-20T06:33:52.158Z,22.20
2019-04-20T06:41:14.225Z,22.80
2019-04-20T06:43:41.196Z,22.50
2019-04-20T06:46:31.958Z,22.10
2019-04-20T06:49:15.120Z,22.20
2019-04-20T06:51:54.220Z,23.20
2019-04-20T06:54:28.881Z,23.80
2019-04-20T06:57:08.857Z,24.30
2019-04-20T06:59:39.310Z,23.00
2019-04-20T07:02:11.384Z,23.80
2019-04-20T07:07:08.616Z,23.40
2019-04-20T07:09:49.627Z,23.90
2019-04-20T07:12:06.420Z,23.60
2019-04-20T07:14:35.940Z,25.30
2019-04-20T07:17:33.535Z,25.40
2019-04-20T07:19:50.140Z,25.20
2019-04-20T07:22:33.588Z,24.40
2019-04-20T07:25:02.373Z,24.80
2019-04-20T07:27:33.647Z,25.50
2019-04-20T07:30:04.031Z,25.60
2019-04-20T07:32:38.933Z,25.00
2019-04-20T07:35:08.459Z,23.60
2019-04-20T07:40:10.419Z,23.50
2019-04-20T07:42:43.727Z,24.50
2019-04-20T07:45:19.936Z,25.50
2019-04-20T07:47:47.749Z,26.70
2019-04-20T07:50:07.720Z,26.00
2019-04-20T07:52:33.896Z,26.00
2019-04-20T07:57:44.117Z,26.50
2019-04-20T08:00:21.461Z,27.10
2019-04-20T08:03:12.863Z,25.80
2019-04-20T08:05:31.210Z,27.00
2019-04-20T08:08:02.680Z,27.10
2019-04-20T08:10:36.069Z,27.20
2019-04-20T08:13:21.657Z,26.70
2019-04-20T08:18:17.557Z,26.20
2019-04-20T08:20:47.502Z,25.20
2019-04-20T08:23:17.124Z,26.00
2019-04-20T08:25:39.884Z,27.10
2019-04-20T08:28:15.337Z,26.70
2019-04-20T08:31:01.908Z,26.40
2019-04-20T08:33:34.862Z,26.70
2019-04-20T08:36:11.110Z,27.30
2019-04-20T08:39:07.126Z,26.50
2019-04-20T08:41:12.050Z,27.40
2019-04-20T08:43:46.824Z,27.10
2019-04-20T08:46:17.767Z,27.00
2019-04-20T08:48:48.738Z,28.60
2019-04-20T08:51:14.586Z,27.80
2019-04-20T08:53:48.054Z,27.30
2019-04-20T08:56:10.969Z,26.60
2019-04-20T08:58:29.887Z,26.40
2019-04-20T09:01:03.583Z,25.10
2019-04-20T09:03:43.806Z,23.50
2019-04-20T09:06:09.843Z,21.80
2019-04-20T09:08:46.582Z,20.60
2019-04-20T09:11:21.917Z,19.70
2019-04-20T09:13:44.108Z,19.60
2019-04-20T09:16:06.758Z,19.60
2019-04-20T09:18:47.973Z,19.30
2019-04-20T09:21:22.113Z,19.30
2019-04-20T09:24:11.783Z,19.10
2019-04-20T09:26:35.539Z,19.20
2019-04-20T09:28:59.131Z,19.20
2019-04-20T09:31:39.299Z,19.40
2019-04-20T09:34:16.115Z,19.20
2019-04-20T09:36:49.848Z,18.90
2019-04-20T09:39:22.534Z,19.00
2019-04-20T09:42:02.387Z,18.60
2019-04-20T09:44:39.829Z,18.90
2019-04-20T09:47:04.648Z,19.20
2019-04-20T09:49:46.026Z,19.30
2019-04-20T09:52:18.474Z,19.00
2019-04-20T09:54:55.190Z,18.90
2019-04-20T09:57:25.507Z,18.80
2019-04-20T09:59:58.711Z,18.70
2019-04-20T10:02:16.700Z,18.60
2019-04-20T10:04:40.155Z,19.00
2019-04-20T10:07:15.805Z,19.10
2019-04-20T10:09:44.550Z,19.20
2019-04-20T10:12:11.542Z,19.20
2019-04-20T10:14:40.854Z,19.10
2019-04-20T10:17:11.868Z,19.30
2019-04-20T10:19:43.052Z,19.20
2019-04-20T10:22:13.065Z,19.00
2019-04-20T10:24:44.163Z,18.90
2019-04-20T10:27:14.613Z,19.00
2019-04-20T10:29:44.062Z,19.10
2019-04-20T10:32:16.032Z,19.10
2019-04-20T10:34:46.414Z,19.30
2019-04-20T10:37:20.229Z,19.50
2019-04-20T10:39:49.820Z,19.40
2019-04-20T10:42:20.373Z,19.40
2019-04-20T10:44:54.937Z,19.20
2019-04-20T10:47:23.060Z,19.20
2019-04-20T10:49:53.273Z,19.20
2019-04-20T10:52:23.586Z,19.30
2019-04-20T10:54:54.423Z,19.30
2019-04-20T10:57:25.779Z,19.30
2019-04-20T10:59:55.481Z,19.30
2019-04-20T11:02:25.906Z,19.70
2019-04-20T11:04:56.866Z,19.80
2019-04-20T11:07:26.531Z,19.90
2019-04-20T11:10:07.903Z,19.60
2019-04-20T11:12:28.351Z,19.40
2019-04-20T11:14:58.682Z,19.50
2019-04-20T11:17:30.047Z,19.50
2019-04-20T11:19:59.253Z,19.70
2019-04-20T11:22:28.584Z,19.80
2019-04-20T11:24:58.867Z,19.90
2019-04-20T11:27:28.200Z,19.70
2019-04-20T11:29:58.238Z,20.00
2019-04-20T11:32:28.359Z,20.00
2019-04-20T11:35:02.220Z,20.30
2019-04-20T11:37:29.093Z,20.50
2019-04-20T11:39:59.048Z,20.50
2019-04-20T11:42:29.824Z,20.10
2019-04-20T11:45:00.426Z,20.20
2019-04-20T11:47:29.827Z,20.00
2019-04-20T11:49:59.544Z,19.90
2019-04-20T11:52:33.257Z,19.80
2019-04-20T11:55:02.305Z,19.80
2019-04-20T11:57:33.424Z,19.80
2019-04-20T12:00:08.748Z,20.00
2019-04-20T12:02:44.740Z,20.20
2019-04-20T12:05:26.209Z,20.30
2019-04-20T12:07:58.689Z,20.30
2019-04-20T12:10:29.598Z,20.50
2019-04-20T12:12:59.639Z,20.60
2019-04-20T12:15:32.197Z,20.40
2019-04-20T12:18:01.938Z,20.20
2019-04-20T12:20:32.488Z,20.30
2019-04-20T12:23:02.189Z,20.10
2019-04-20T12:25:35.886Z,20.20
2019-04-20T12:28:05.326Z,20.50
2019-04-20T12:30:35.495Z,20.30
2019-04-20T12:33:05.814Z,20.20
2019-04-20T12:35:36.179Z,20.10
2019-04-20T12:38:07.324Z,20.20
2019-04-20T12:40:37.971Z,20.40
2019-04-20T12:43:08.842Z,20.50
2019-04-20T12:45:38.334Z,20.40
2019-04-20T12:48:08.020Z,20.20
2019-04-20T12:50:37.531Z,20.20
2019-04-20T12:53:08.603Z,20.50
2019-04-20T12:55:38.876Z,20.70
2019-04-20T12:58:08.399Z,20.70
2019-04-20T13:00:46.114Z,20.70
2019-04-20T13:03:15.446Z,20.70
2019-04-20T13:05:45.856Z,20.40
2019-04-20T13:08:23.255Z,20.50
2019-04-20T13:10:48.718Z,20.50
2019-04-20T13:13:28.741Z,20.70
2019-04-20T13:16:05.667Z,20.60
2019-04-20T13:18:43.346Z,20.90
2019-04-20T13:21:13.315Z,20.80
2019-04-20T13:23:43.232Z,21.00
2019-04-20T13:26:13.919Z,21.00
2019-04-20T13:28:43.819Z,21.10
2019-04-20T13:31:13.600Z,21.20
2019-04-20T13:33:43.281Z,21.30
2019-04-20T13:36:12.619Z,21.40
2019-04-20T13:38:42.014Z,21.30
2019-04-20T13:41:11.716Z,21.00
2019-04-20T13:43:41.881Z,20.70
2019-04-20T13:46:13.325Z,20.80
2019-04-20T13:48:42.883Z,20.80
2019-04-20T13:51:12.700Z,20.80
2019-04-20T13:53:43.314Z,20.80
2019-04-20T13:56:14.027Z,20.90
2019-04-20T13:58:54.319Z,21.00
2019-04-20T14:01:32.489Z,20.90
2019-04-20T14:04:04.982Z,20.90
2019-04-20T14:06:35.313Z,21.00
2019-04-20T14:09:07.538Z,20.80
2019-04-20T14:11:39.030Z,20.80
2019-04-20T14:14:08.627Z,20.90
2019-04-20T14:16:39.026Z,20.90
2019-04-20T14:19:09.287Z,20.70
2019-04-20T14:21:38.741Z,20.60
2019-04-20T14:24:08.862Z,20.90
2019-04-20T14:26:39.462Z,20.90
2019-04-20T14:29:10.397Z,20.80
2019-04-20T14:31:39.873Z,20.90
2019-04-20T14:34:09.188Z,20.90
2019-04-20T14:36:39.055Z,20.80
2019-04-20T14:39:10.107Z,20.70
2019-04-20T14:41:40.383Z,20.80
2019-04-20T14:44:12.078Z,20.80
2019-04-20T14:46:42.006Z,20.80
2019-04-20T14:49:12.573Z,20.80
2019-04-20T14:51:42.008Z,20.70
2019-04-20T14:54:11.716Z,20.60
2019-04-20T14:56:43.203Z,20.70
2019-04-20T14:59:15.693Z,20.80
2019-04-20T15:01:52.551Z,20.80
2019-04-20T15:04:23.838Z,20.60
2019-04-20T15:06:52.975Z,20.70
2019-04-20T15:09:22.318Z,20.90
2019-04-20T15:11:52.714Z,20.90
2019-04-20T15:14:22.819Z,20.80
2019-04-20T15:16:52.892Z,20.70
2019-04-20T15:19:25.322Z,20.50
2019-04-20T15:21:57.742Z,20.30
2019-04-20T15:24:27.419Z,20.40
2019-04-20T15:26:58.306Z,20.50
2019-04-20T15:29:28.474Z,20.60
2019-04-20T15:31:58.077Z,20.60
2019-04-20T15:34:28.795Z,20.60
2019-04-20T15:36:58.316Z,20.50
2019-04-20T15:39:27.633Z,20.30
2019-04-20T15:41:57.123Z,20.30
2019-04-20T15:44:27.227Z,20.20
2019-04-20T15:46:57.321Z,20.00
2019-04-20T15:49:28.142Z,20.00
2019-04-20T15:51:57.912Z,20.10
2019-04-20T15:54:27.540Z,20.00
2019-04-20T15:57:02.539Z,19.90
2019-04-20T15:59:28.521Z,19.80
2019-04-20T16:01:59.673Z,19.80
2019-04-20T16:04:35.584Z,19.80
2019-04-20T16:07:03.282Z,19.90
2019-04-20T16:09:33.677Z,19.80
2019-04-20T16:12:03.127Z,19.80
2019-04-20T16:14:33.377Z,19.80
2019-04-20T16:17:06.557Z,19.90
2019-04-20T16:19:44.974Z,19.90
2019-04-20T16:22:05.942Z,19.90
2019-04-20T16:24:40.677Z,20.00
2019-04-20T16:27:17.945Z,20.00
2019-04-20T16:29:47.510Z,19.80
2019-04-20T16:32:16.851Z,19.70
2019-04-20T16:34:46.514Z,19.60
2019-04-20T16:37:16.915Z,19.50
2019-04-20T16:39:46.567Z,19.50
2019-04-20T16:42:16.214Z,19.40
2019-04-20T16:44:45.677Z,19.40
2019-04-20T16:47:16.337Z,19.30
2019-04-20T16:49:46.739Z,19.20
2019-04-20T16:52:16.826Z,19.30
2019-04-20T16:54:46.348Z,19.20
2019-04-20T16:57:17.142Z,19.20
2019-04-20T16:59:50.540Z,19.10
2019-04-20T17:02:19.625Z,19.10
2019-04-20T17:04:51.291Z,18.90
2019-04-20T17:07:21.427Z,18.90
2019-04-20T17:09:51.933Z,18.80
2019-04-20T17:12:21.734Z,18.80
2019-04-20T17:14:51.633Z,18.70
2019-04-20T17:17:21.963Z,18.70
2019-04-20T17:19:51.573Z,18.60
2019-04-20T17:22:21.486Z,18.50
2019-04-20T17:24:51.553Z,18.50
2019-04-20T17:27:37.435Z,18.40
2019-04-20T17:30:26.710Z,18.30
2019-04-20T17:32:57.896Z,18.10
2019-04-20T17:35:37.966Z,18.10
2019-04-20T17:37:58.488Z,17.80
2019-04-20T17:40:46.012Z,17.70
2019-04-20T17:43:09.312Z,17.60
2019-04-20T17:45:42.173Z,17.40
2019-04-20T17:48:16.959Z,17.30
2019-04-20T17:50:57.860Z,17.20
2019-04-20T17:53:18.705Z,17.00
2019-04-20T17:55:41.226Z,17.00
2019-04-20T17:58:12.102Z,16.90
2019-04-20T18:00:49.374Z,16.80
2019-04-20T18:03:52.888Z,16.60
2019-04-20T18:06:12.755Z,16.50
2019-04-20T18:08:45.397Z,16.40
2019-04-20T18:11:03.675Z,16.30
2019-04-20T18:13:30.262Z,16.20
2019-04-20T18:16:26.360Z,16.00
2019-04-20T18:18:55.251Z,15.90
2019-04-20T18:21:30.965Z,15.80
2019-04-20T18:24:00.476Z,15.80
2019-04-20T18:26:48.222Z,15.60
2019-04-20T18:29:20.195Z,15.40
2019-04-20T18:31:33.651Z,15.30
2019-04-20T18:34:11.314Z,15.30
2019-04-20T18:36:39.940Z,15.20
2019-04-20T18:39:11.867Z,15.10
2019-04-20T18:41:45.548Z,14.80
2019-04-20T18:44:10.840Z,14.80
2019-04-20T18:47:06.671Z,14.70
2019-04-20T18:49:27.208Z,14.60
2019-04-20T18:51:43.837Z,14.50
2019-04-20T18:54:18.846Z,14.30
2019-04-20T18:56:50.069Z,14.40
2019-04-20T18:59:16.754Z,14.10
2019-04-20T19:01:46.743Z,14.10
2019-04-20T19:04:17.564Z,14.00
2019-04-20T19:06:47.990Z,13.80
2019-04-20T19:09:24.230Z,13.90
2019-04-20T19:11:53.441Z,13.90
2019-04-20T19:14:40.888Z,13.90
2019-04-20T19:17:23.042Z,13.90
2019-04-20T19:19:52.959Z,13.80
2019-04-20T19:22:19.672Z,13.70
2019-04-20T19:24:49.790Z,13.50
2019-04-20T19:27:24.619Z,13.40
2019-04-20T19:29:58.666Z,13.40
2019-04-20T19:32:35.949Z,13.30
2019-04-20T19:35:02.308Z,13.20
2019-04-20T19:37:29.137Z,13.20
2019-04-20T19:40:07.058Z,13.30
2019-04-20T19:42:39.609Z,13.20
2019-04-20T19:45:17.508Z,13.10
2019-04-20T19:47:46.820Z,13.10
2019-04-20T19:50:28.542Z,13.00
2019-04-20T19:53:02.149Z,12.90
2019-04-20T19:55:23.393Z,12.80
2019-04-20T19:57:50.446Z,12.70
2019-04-20T20:00:08.260Z,12.50
2019-04-20T20:02:39.437Z,12.50
2019-04-20T20:05:14.697Z,12.40
2019-04-20T20:07:44.460Z,12.20
2019-04-20T20:10:12.750Z,12.20
2019-04-20T20:12:48.334Z,12.10
2019-04-20T20:15:22.083Z,11.90
2019-04-20T20:18:10.201Z,11.80
2019-04-20T20:20:35.877Z,11.80
2019-04-20T20:22:50.549Z,11.60
2019-04-20T20:25:18.891Z,11.50
2019-04-20T20:27:54.319Z,11.40
2019-04-20T20:30:29.119Z,11.40
2019-04-20T20:33:05.982Z,11.40
2019-04-20T20:35:26.070Z,11.30
2019-04-20T20:37:57.126Z,11.30
2019-04-20T20:40:30.283Z,11.20
2019-04-20T20:43:08.044Z,11.20
2019-04-20T20:45:33.675Z,11.30
2019-04-20T20:48:18.257Z,11.20
2019-04-20T20:50:49.111Z,11.20
2019-04-20T20:53:10.154Z,11.30
2019-04-20T20:55:38.227Z,11.20
2019-04-20T20:58:08.579Z,11.20
2019-04-20T21:00:42.897Z,11.10
2019-04-20T21:03:06.041Z,11.00
2019-04-20T21:05:35.589Z,10.80
2019-04-20T21:08:05.881Z,10.70
2019-04-20T21:10:41.845Z,10.50
2019-04-20T21:13:08.973Z,10.30
2019-04-20T21:15:38.376Z,10.30
2019-04-20T21:18:28.673Z,10.20
2019-04-20T21:20:54.025Z,10.10
2019-04-20T21:23:25.171Z,9.90
2019-04-20T21:26:01.221Z,9.80
2019-04-20T21:28:35.727Z,9.70
2019-04-20T21:31:08.426Z,9.60
2019-04-20T21:33:37.789Z,9.60
2019-04-20T21:36:07.099Z,9.80
2019-04-20T21:38:40.750Z,9.80
2019-04-20T21:41:11.332Z,9.80
2019-04-20T21:43:41.239Z,9.80
2019-04-20T21:46:11.911Z,9.80
2019-04-20T21:48:56.023Z,9.70
2019-04-20T21:51:25.745Z,9.70
2019-04-20T21:53:44.155Z,9.60
2019-04-20T21:56:13.680Z,9.50
2019-04-20T21:58:49.440Z,9.60
2019-04-20T22:01:25.372Z,9.40
2019-04-20T22:03:48.144Z,9.60
2019-04-20T22:06:18.358Z,9.50
2019-04-20T22:08:51.812Z,9.40
2019-04-20T22:11:19.963Z,9.30
2019-04-20T22:13:51.125Z,9.30
2019-04-20T22:16:22.678Z,9.20
2019-04-20T22:19:04.642Z,9.20
2019-04-20T22:21:31.408Z,9.10
2019-04-20T22:24:07.855Z,9.00
2019-04-20T22:26:33.721Z,9.00
2019-04-20T22:28:56.337Z,9.00
2019-04-20T22:31:26.373Z,9.00
2019-04-20T22:34:02.284Z,8.90
2019-04-20T22:36:33.865Z,8.90
2019-04-20T22:39:13.860Z,8.90
2019-04-20T22:41:52.550Z,8.90
2019-04-20T22:44:20.703Z,8.80
2019-04-20T22:46:47.736Z,8.70
2019-04-20T22:49:33.702Z,8.60
2019-04-20T22:51:58.141Z,8.50
2019-04-20T22:54:37.658Z,8.40
2019-04-20T22:57:02.055Z,8.30
2019-04-20T22:59:30.336Z,8.20
2019-04-20T23:01:58.208Z,8.10
2019-04-20T23:04:24.708Z,8.10
2019-04-20T23:06:55.884Z,8.10
2019-04-20T23:09:26.477Z,8.00
2019-04-20T23:12:03.586Z,7.90
2019-04-20T23:14:28.678Z,7.80
2019-04-20T23:16:58.137Z,7.70
2019-04-20T23:19:36.603Z,7.70
2019-04-20T23:22:03.101Z,7.70
2019-04-20T23:24:31.086Z,7.60
2019-04-20T23:27:05.355Z,7.60
2019-04-20T23:29:37.646Z,7.60
2019-04-20T23:32:06.385Z,7.60
2019-04-20T23:34:34.591Z,7.60
2019-04-20T23:37:10.231Z,7.60
2019-04-20T23:39:41.507Z,7.50
2019-04-20T23:42:10.814Z,7.40
2019-04-20T23:44:59.893Z,7.30
2019-04-20T23:47:39.759Z,7.30
2019-04-20T23:50:35.450Z,7.30
2019-04-20T23:53:07.534Z,7.20
2019-04-20T23:55:18.667Z,7.20
2019-04-20T23:57:53.489Z,7.20
